ilmateenistus.ee keskkonnaagentuur.ee
EETN Tallinna lennuväli
FTEO31 EETN 010500
TAF EETN 010510Z 0106/0206 03010KT 9999 BKN045 PROB40 TEMPO 0108/0115
    SCT025CB BKN035 TEMPO 0118/0124 09010KT=

METAR EETN 010750Z 05005KT 010V080 CAVOK 15/06 Q1024 NOSIG=
Tallinna lennuväli
EEKA Kärdla lennuväli
FCEO32 EETN 010300 AAA
TAF AMD EEKA 010700Z 0104/0110 CNL=

METAR EEKA 010750Z NIL=
Kärdla lennuväli
EEKE Kuressaare lennuväli
FCEO32 EETN 010500
TAF EEKE 010500Z 0106/0112 VRB02KT CAVOK BECMG 0106/0108 02010KT=

METAR COR EEKE 010750Z VRB03KT CAVOK 18/06 Q1024=
Kuressaare lennuväli
EEPU Pärnu lennuväli
METAR EEPU 010750Z 04006KT 010V090 CAVOK 17/06 Q1023=
Pärnu lennuväli
EETU Tartu lennuväli
METAR EETU 010750Z 05009KT 010V080 CAVOK 13/01 Q1023=
Tartu lennuväli
EEEI Ämari lennuväli
METAR EEEI 010750Z 33008KT 310V010 CAVOK 16/07 Q1024 NOSIG=
Ämari lennuväli